Time;durP1;ratioP1;P1;durP2;ratioP2;P2;SDS_P1;SDS_P2;PMS_P1;PMS_P2;Temp;Humidity;BMP_temperature;BMP_pressure;BME280_temperature;BME280_humidity;BME280_pressure;Samples;Min_cycle;Max_cycle;Signal;HPM_P1;HPM_P2
2023/04/03 00:01:10;;;;;;;2.30;1.60;;;1.20;99.90;;;;;;5061947;28;20037;-66
2023/04/03 00:03:36;;;;;;;3.85;1.90;;;1.10;99.90;;;;;;5057408;28;20045;-66
2023/04/03 00:06:06;;;;;;;2.88;1.80;;;1.10;99.90;;;;;;5055611;28;20052;-66
2023/04/03 00:08:32;;;;;;;5.35;1.85;;;1.00;99.90;;;;;;5062086;28;20044;-67
2023/04/03 00:10:59;;;;;;;2.75;1.73;;;1.00;99.90;;;;;;5061918;28;20101;-66
2023/04/03 00:13:25;;;;;;;5.72;1.70;;;0.90;99.90;;;;;;5053948;28;20052;-67
2023/04/03 00:15:51;;;;;;;3.88;1.95;;;0.90;99.90;;;;;;5060240;28;20505;-67
2023/04/03 00:18:17;;;;;;;4.60;2.00;;;0.80;99.90;;;;;;5064148;28;20044;-67
2023/04/03 00:20:44;;;;;;;3.25;1.65;;;0.80;99.90;;;;;;5065726;28;20051;-67
2023/04/03 00:23:10;;;;;;;5.47;1.90;;;0.80;99.90;;;;;;5062517;28;20051;-67
2023/04/03 00:25:36;;;;;;;4.63;2.03;;;0.80;99.90;;;;;;5060889;28;20044;-67
2023/04/03 00:28:04;;;;;;;5.65;2.00;;;0.70;99.90;;;;;;5063377;28;20059;-67
2023/04/03 00:30:30;;;;;;;3.75;1.90;;;0.70;99.90;;;;;;5065030;28;20619;-69
2023/04/03 00:32:56;;;;;;;2.83;1.85;;;0.70;99.90;;;;;;5062211;28;20059;-68
2023/04/03 00:35:25;;;;;;;4.35;1.85;;;0.70;99.90;;;;;;5046590;28;20083;-67
2023/04/03 00:37:53;;;;;;;3.25;2.10;;;0.70;99.90;;;;;;5058851;28;20040;-67
2023/04/03 00:40:20;;;;;;;3.42;1.95;;;0.70;99.90;;;;;;5063431;28;20705;-67
2023/04/03 00:42:48;;;;;;;4.90;2.03;;;0.80;99.90;;;;;;5061661;28;20135;-67
2023/04/03 00:45:28;;;;;;;4.53;2.28;;;0.80;99.90;;;;;;5059111;28;20098;-67
2023/04/03 00:47:55;;;;;;;5.72;1.98;;;0.80;99.90;;;;;;5072027;28;20051;-67
2023/04/03 00:50:22;;;;;;;3.65;2.00;;;0.90;99.90;;;;;;5059360;28;21447;-67
2023/04/03 00:52:48;;;;;;;3.55;2.20;;;0.80;99.90;;;;;;5045101;28;20189;-67
2023/04/03 00:55:15;;;;;;;5.25;2.17;;;0.90;99.90;;;;;;5062616;28;20560;-67
2023/04/03 00:57:42;;;;;;;4.53;2.50;;;0.90;99.90;;;;;;5064277;28;20079;-67
2023/04/03 01:00:12;;;;;;;5.50;1.80;;;0.80;99.90;;;;;;5072954;28;20071;-67
2023/04/03 01:02:40;;;;;;;6.07;2.00;;;0.80;99.90;;;;;;5062051;28;20048;-67
2023/04/03 01:05:06;;;;;;;7.55;2.05;;;0.80;99.90;;;;;;5066664;28;20452;-67
2023/04/03 01:07:35;;;;;;;3.22;2.00;;;0.80;99.90;;;;;;5065759;28;20059;-67
2023/04/03 01:10:04;;;;;;;7.30;2.13;;;0.80;99.90;;;;;;5068027;28;20498;-67
2023/04/03 01:12:34;;;;;;;6.78;2.10;;;0.80;99.90;;;;;;5065586;28;20048;-67
2023/04/03 01:15:09;;;;;;;6.90;2.22;;;0.80;99.90;;;;;;5066527;28;20557;-67
2023/04/03 01:17:38;;;;;;;4.28;2.00;;;0.80;99.90;;;;;;5065411;28;20068;-67
2023/04/03 01:20:42;;;;;;;8.40;2.53;;;0.80;99.90;;;;;;5062305;28;20036;-67
2023/04/03 01:23:10;;;;;;;5.80;2.20;;;0.70;99.90;;;;;;5070057;28;20453;-67
2023/04/03 01:25:43;;;;;;;3.78;2.17;;;0.70;99.90;;;;;;5043346;28;20072;-67
2023/04/03 01:28:15;;;;;;;7.38;2.53;;;0.70;99.90;;;;;;5067706;28;20041;-67
2023/04/03 01:31:11;;;;;;;6.13;2.10;;;0.60;99.90;;;;;;5065750;28;20040;-67
2023/04/03 01:33:38;;;;;;;8.95;2.42;;;0.60;99.90;;;;;;5064459;28;20060;-67
2023/04/03 01:36:04;;;;;;;6.65;2.33;;;0.50;99.90;;;;;;5064203;28;21177;-67
2023/04/03 01:38:31;;;;;;;8.30;2.45;;;0.50;99.90;;;;;;5058146;28;20048;-68
2023/04/03 01:40:56;;;;;;;4.88;2.75;;;0.50;99.90;;;;;;5044324;28;20056;-66
2023/04/03 01:43:22;;;;;;;7.18;2.50;;;0.50;99.90;;;;;;5065323;28;20056;-66
2023/04/03 01:45:49;;;;;;;6.30;2.80;;;0.50;99.90;;;;;;5066560;28;20413;-66
2023/04/03 01:48:16;;;;;;;4.38;2.35;;;0.50;99.90;;;;;;5048099;28;20053;-67
2023/04/03 01:50:41;;;;;;;3.80;2.08;;;0.40;99.90;;;;;;5064165;28;20059;-67
2023/04/03 01:53:07;;;;;;;4.55;2.20;;;0.40;99.90;;;;;;5076878;28;20505;-67
2023/04/03 01:55:33;;;;;;;4.90;2.50;;;0.30;99.90;;;;;;5067595;28;20478;-67
2023/04/03 01:57:59;;;;;;;9.60;2.97;;;0.20;99.90;;;;;;5046492;28;20032;-67
2023/04/03 02:00:26;;;;;;;3.38;2.38;;;0.20;99.90;;;;;;5044209;28;20620;-67
2023/04/03 02:02:52;;;;;;;4.20;2.35;;;0.20;99.90;;;;;;5064564;28;20101;-67
2023/04/03 02:05:18;;;;;;;6.05;2.67;;;0.10;99.90;;;;;;5049504;28;20079;-67
2023/04/03 02:07:44;;;;;;;6.10;2.60;;;0.10;99.90;;;;;;5060277;28;20127;-67
2023/04/03 02:10:10;;;;;;;6.07;2.17;;;0.10;99.90;;;;;;5063884;28;20512;-67
2023/04/03 02:12:36;;;;;;;5.28;2.60;;;0.00;99.90;;;;;;5045598;28;20075;-67
2023/04/03 02:15:01;;;;;;;4.53;2.25;;;0.00;99.90;;;;;;5064040;28;20064;-67
2023/04/03 02:17:28;;;;;;;5.60;2.60;;;-0.10;99.90;;;;;;5068110;28;20149;-67
2023/04/03 02:19:54;;;;;;;5.22;2.72;;;-0.10;99.90;;;;;;5048463;28;20037;-67
2023/04/03 02:22:20;;;;;;;5.03;2.45;;;-0.10;99.90;;;;;;5065088;28;20139;-68
2023/04/03 02:24:45;;;;;;;4.93;2.40;;;0.20;99.90;;;;;;5067160;28;20391;-67
2023/04/03 02:27:11;;;;;;;6.03;2.47;;;-0.10;99.90;;;;;;5066464;28;20074;-67
2023/04/03 02:29:37;;;;;;;4.63;2.45;;;-0.10;99.90;;;;;;5048547;28;20497;-67
2023/04/03 02:32:03;;;;;;;3.70;2.10;;;-0.10;99.90;;;;;;5065945;28;20033;-67
2023/04/03 02:34:29;;;;;;;4.90;2.70;;;-0.20;99.90;;;;;;5041440;28;21456;-67
2023/04/03 02:36:55;;;;;;;8.15;3.03;;;-0.20;99.90;;;;;;5064421;28;20115;-67
2023/04/03 02:39:23;;;;;;;6.72;2.65;;;-0.20;99.90;;;;;;5062110;28;20531;-67
2023/04/03 02:41:49;;;;;;;4.43;2.50;;;-0.30;99.90;;;;;;5046409;28;20044;-67
2023/04/03 02:44:16;;;;;;;3.65;2.40;;;-0.30;99.90;;;;;;5059534;28;20052;-67
2023/04/03 02:46:42;;;;;;;8.30;2.70;;;-0.30;99.90;;;;;;5066273;28;20059;-67
2023/04/03 02:49:07;;;;;;;4.90;2.38;;;-0.30;99.90;;;;;;5066544;28;20055;-66
2023/04/03 02:51:36;;;;;;;3.95;2.30;;;-0.10;99.90;;;;;;5058560;28;20051;-66
2023/04/03 02:54:02;;;;;;;5.80;2.42;;;-0.40;99.90;;;;;;5062804;28;20044;-66
2023/04/03 02:56:28;;;;;;;5.40;2.80;;;-0.40;99.90;;;;;;5066044;28;20044;-66
2023/04/03 02:58:53;;;;;;;5.38;2.67;;;-0.40;99.90;;;;;;5069701;28;20028;-66
2023/04/03 03:01:19;;;;;;;8.68;2.80;;;-0.40;99.90;;;;;;5076188;28;20039;-66
2023/04/03 03:03:45;;;;;;;7.43;2.80;;;-0.50;99.90;;;;;;5047707;28;20047;-66
2023/04/03 03:06:14;;;;;;;7.50;2.83;;;-0.50;99.90;;;;;;5062426;28;20037;-66
2023/04/03 03:08:41;;;;;;;3.45;2.60;;;-0.50;99.90;;;;;;5060882;28;20513;-66
2023/04/03 03:11:07;;;;;;;5.07;3.20;;;-0.60;99.90;;;;;;5061640;28;20051;-66
2023/04/03 03:13:33;;;;;;;6.57;2.58;;;-0.60;99.90;;;;;;5064285;28;20048;-66
2023/04/03 03:15:59;;;;;;;4.88;3.40;;;-0.60;99.90;;;;;;5065924;28;20536;-66
2023/04/03 03:18:26;;;;;;;6.13;2.75;;;-0.60;99.90;;;;;;5059084;28;20037;-66
2023/04/03 03:20:57;;;;;;;3.95;2.47;;;-0.70;99.90;;;;;;5068489;28;20171;-66
2023/04/03 03:23:25;;;;;;;9.73;3.33;;;-0.70;99.90;;;;;;5068965;28;20559;-66
2023/04/03 03:25:56;;;;;;;5.88;2.40;;;-0.70;99.90;;;;;;5050528;28;20541;-66
2023/04/03 03:28:22;;;;;;;6.78;3.30;;;-0.70;99.90;;;;;;5045793;28;20058;-66
2023/04/03 03:30:47;;;;;;;4.70;2.50;;;-0.70;99.90;;;;;;5080013;28;20335;-66
2023/04/03 03:33:13;;;;;;;6.63;2.90;;;-0.80;99.90;;;;;;5068152;28;20128;-65
2023/04/03 03:35:40;;;;;;;6.03;2.90;;;-0.90;99.90;;;;;;5069701;28;20136;-66
2023/04/03 03:38:05;;;;;;;8.27;2.75;;;-1.00;99.90;;;;;;5060992;28;20122;-66
2023/04/03 03:40:31;;;;;;;7.38;3.08;;;-1.00;99.90;;;;;;5065172;28;20041;-66
2023/04/03 03:42:57;;;;;;;4.95;2.90;;;-1.10;99.90;;;;;;5061474;28;20067;-66
2023/04/03 03:45:23;;;;;;;7.03;3.42;;;-0.90;99.90;;;;;;5069529;28;20040;-66
2023/04/03 03:47:48;;;;;;;6.07;2.97;;;-1.10;99.90;;;;;;5068985;28;20540;-66
2023/04/03 03:50:14;;;;;;;5.50;3.05;;;-1.20;99.90;;;;;;5060490;28;20159;-66
2023/04/03 03:52:40;;;;;;;7.25;2.95;;;-1.20;99.90;;;;;;5066931;28;20386;-66
2023/04/03 03:55:06;;;;;;;7.88;2.92;;;-1.20;99.90;;;;;;5063045;28;20111;-66
2023/04/03 03:57:32;;;;;;;9.20;3.28;;;-1.10;99.90;;;;;;5050219;28;20036;-66
2023/04/03 03:59:57;;;;;;;4.50;2.90;;;-1.10;99.90;;;;;;5068116;28;20078;-66
2023/04/03 04:02:23;;;;;;;6.72;2.85;;;-1.10;99.90;;;;;;5058856;28;20051;-66
2023/04/03 04:04:49;;;;;;;6.43;3.00;;;-1.00;99.90;;;;;;5064260;28;20091;-66
2023/04/03 04:07:15;;;;;;;5.75;3.05;;;-1.00;99.90;;;;;;5065058;28;20452;-66
2023/04/03 04:09:40;;;;;;;9.40;3.38;;;-1.00;99.90;;;;;;5059245;28;20052;-66
2023/04/03 04:12:06;;;;;;;9.18;3.30;;;-1.00;99.90;;;;;;5059271;28;20049;-66
2023/04/03 04:14:32;;;;;;;7.45;3.35;;;-1.00;99.90;;;;;;5063041;28;20082;-65
2023/04/03 04:16:57;;;;;;;8.02;2.88;;;-1.00;99.90;;;;;;5064143;28;20043;-66
2023/04/03 04:19:23;;;;;;;8.75;3.03;;;-1.00;99.90;;;;;;5044664;28;20042;-66
2023/04/03 04:21:50;;;;;;;6.47;3.13;;;-1.10;99.90;;;;;;5062274;28;20044;-65
2023/04/03 04:24:15;;;;;;;5.45;3.45;;;-1.00;99.90;;;;;;5053748;28;20066;-66
2023/04/03 04:26:41;;;;;;;7.32;3.00;;;-0.80;99.90;;;;;;5044586;28;20037;-66
2023/04/03 04:29:09;;;;;;;5.97;3.13;;;-1.10;99.90;;;;;;5041777;28;20068;-66
2023/04/03 04:31:35;;;;;;;4.43;2.60;;;-1.10;99.90;;;;;;5062739;28;20033;-65
2023/04/03 04:34:01;;;;;;;6.32;3.20;;;-1.10;99.90;;;;;;5063258;28;20044;-65
2023/04/03 04:36:26;;;;;;;6.78;2.65;;;-1.20;99.90;;;;;;5045521;28;20044;-65
2023/04/03 04:38:55;;;;;;;7.53;3.03;;;-1.20;99.90;;;;;;5061640;28;20072;-65
2023/04/03 04:41:25;;;;;;;5.88;2.80;;;-1.20;99.90;;;;;;5046017;28;20041;-65
2023/04/03 04:43:51;;;;;;;6.68;2.90;;;-1.20;99.90;;;;;;5056973;28;20060;-65
2023/04/03 04:46:17;;;;;;;6.93;2.95;;;-1.30;99.90;;;;;;5063413;28;20044;-65
2023/04/03 04:48:43;;;;;;;9.02;3.45;;;-1.20;99.90;;;;;;5061317;28;20032;-65
2023/04/03 04:51:09;;;;;;;8.73;2.80;;;-1.30;99.90;;;;;;5064841;28;20481;-65
2023/04/03 04:53:35;;;;;;;4.20;2.60;;;-1.30;99.90;;;;;;5046745;28;20051;-65
2023/04/03 04:56:01;;;;;;;10.77;3.25;;;-1.20;99.90;;;;;;5060359;28;20043;-65
2023/04/03 04:58:27;;;;;;;4.40;2.85;;;-1.20;99.90;;;;;;5060881;28;20044;-66
2023/04/03 05:01:04;;;;;;;6.20;3.10;;;-1.30;99.90;;;;;;5062820;28;20085;-65
2023/04/03 05:03:31;;;;;;;7.70;2.97;;;-1.30;99.90;;;;;;5044491;28;20129;-65
2023/04/03 05:05:57;;;;;;;7.57;3.38;;;-1.30;99.90;;;;;;5060220;28;20048;-65
2023/04/03 05:08:22;;;;;;;6.57;3.20;;;-1.20;99.90;;;;;;5061689;28;20047;-66
2023/04/03 05:10:48;;;;;;;11.68;3.50;;;-1.30;99.90;;;;;;5061766;28;20037;-66
2023/04/03 05:13:14;;;;;;;9.82;3.20;;;-1.30;99.90;;;;;;5061734;28;20033;-65
2023/04/03 05:15:40;;;;;;;6.47;3.03;;;-1.30;99.90;;;;;;5058575;28;20033;-66
2023/04/03 05:18:06;;;;;;;4.75;2.65;;;-1.30;99.90;;;;;;5064418;28;20041;-66
2023/04/03 05:20:33;;;;;;;8.70;3.53;;;-1.30;99.90;;;;;;5062858;28;20036;-65
2023/04/03 05:22:59;;;;;;;4.35;2.90;;;-1.30;99.90;;;;;;5062640;28;20394;-66
2023/04/03 05:25:25;;;;;;;7.95;4.00;;;-1.30;99.90;;;;;;5057442;28;20043;-65
2023/04/03 05:27:50;;;;;;;8.40;3.05;;;-1.30;99.90;;;;;;5058138;28;20124;-65
2023/04/03 05:30:17;;;;;;;9.45;2.90;;;-1.30;99.90;;;;;;5062947;28;20043;-65
2023/04/03 05:32:43;;;;;;;6.50;2.90;;;-1.30;99.90;;;;;;5066824;28;20033;-65
2023/04/03 05:35:09;;;;;;;5.28;2.65;;;-1.40;99.90;;;;;;5063509;28;20346;-65
2023/04/03 05:37:35;;;;;;;6.18;3.38;;;-1.10;99.90;;;;;;5063989;28;20528;-66
2023/04/03 05:40:02;;;;;;;9.32;3.17;;;-1.40;99.90;;;;;;5063418;28;20403;-65
2023/04/03 05:42:27;;;;;;;8.73;3.38;;;-1.40;99.90;;;;;;5061685;28;20137;-66
2023/04/03 05:44:53;;;;;;;7.82;3.17;;;-1.30;99.90;;;;;;5062485;28;20086;-65
2023/04/03 05:47:19;;;;;;;7.25;3.30;;;-1.30;99.90;;;;;;5062855;28;20031;-65
2023/04/03 05:49:45;;;;;;;14.90;3.40;;;-1.20;99.90;;;;;;5040623;28;20159;-65
2023/04/03 05:52:20;;;;;;;8.13;3.05;;;-1.20;99.90;;;;;;5065473;28;20231;-65
2023/04/03 05:54:47;;;;;;;11.93;3.60;;;-1.20;99.90;;;;;;5066504;28;20497;-65
2023/04/03 05:57:15;;;;;;;4.35;2.67;;;-1.10;99.90;;;;;;5046524;28;20037;-65
2023/04/03 05:59:42;;;;;;;7.70;2.72;;;-1.10;99.90;;;;;;5054790;28;20043;-66
2023/04/03 06:02:21;;;;;;;6.72;3.00;;;-1.00;99.90;;;;;;5058331;28;20032;-65
2023/04/03 06:04:47;;;;;;;9.05;3.40;;;-1.00;99.90;;;;;;5053479;28;20101;-65
2023/04/03 06:07:27;;;;;;;8.25;3.95;;;-0.60;99.90;;;;;;5056746;28;20063;-65
2023/04/03 06:09:55;;;;;;;11.18;3.67;;;-0.90;99.90;;;;;;5039527;28;20442;-65
2023/04/03 06:12:21;;;;;;;13.95;3.75;;;-0.90;99.90;;;;;;5053558;28;20923;-65
2023/04/03 06:14:47;;;;;;;10.25;3.97;;;-0.80;99.90;;;;;;5057089;28;20413;-65
2023/04/03 06:17:15;;;;;;;8.10;3.67;;;-0.80;99.90;;;;;;5054319;28;20037;-65
2023/04/03 06:19:40;;;;;;;9.65;3.30;;;-0.70;99.90;;;;;;5051845;28;20090;-65
2023/04/03 06:22:06;;;;;;;8.63;3.97;;;-0.70;99.90;;;;;;5053510;28;20532;-66
2023/04/03 06:24:32;;;;;;;11.32;3.30;;;-0.60;99.90;;;;;;5050749;28;20037;-65
2023/04/03 06:26:58;;;;;;;7.80;3.17;;;-0.50;99.90;;;;;;5031967;28;20397;-65
2023/04/03 06:29:25;;;;;;;9.38;3.50;;;-0.40;99.90;;;;;;5023706;28;20045;-65
2023/04/03 06:31:51;;;;;;;7.45;3.00;;;-0.40;99.90;;;;;;5042529;28;20044;-65
2023/04/03 06:34:17;;;;;;;7.57;2.88;;;-0.30;99.90;;;;;;5059483;28;20048;-65
2023/04/03 06:36:48;;;;;;;9.98;3.42;;;0.00;99.90;;;;;;5053737;28;20550;-65
2023/04/03 06:39:16;;;;;;;9.57;3.42;;;-0.20;99.90;;;;;;5058500;28;20166;-65
2023/04/03 06:41:42;;;;;;;6.72;2.90;;;-0.10;99.90;;;;;;5057559;28;20577;-65
2023/04/03 06:44:10;;;;;;;8.65;3.25;;;-0.10;99.90;;;;;;5054226;28;20057;-65
2023/04/03 06:46:37;;;;;;;9.80;3.28;;;0.10;99.90;;;;;;5053739;28;20063;-65
2023/04/03 06:49:03;;;;;;;6.90;2.90;;;0.10;99.90;;;;;;5057566;28;20894;-65
2023/04/03 06:51:30;;;;;;;8.30;2.88;;;0.20;99.90;;;;;;5057832;28;20044;-65
2023/04/03 06:54:00;;;;;;;10.38;3.15;;;0.30;99.90;;;;;;5039275;28;20059;-66
2023/04/03 06:56:26;;;;;;;5.65;2.75;;;0.40;99.90;;;;;;5056268;28;20074;-66
2023/04/03 06:58:54;;;;;;;4.72;2.42;;;0.40;99.90;;;;;;5051826;28;20066;-66
2023/04/03 07:01:20;;;;;;;4.55;2.97;;;0.70;99.90;;;;;;5050733;28;20083;-66
2023/04/03 07:03:48;;;;;;;9.23;2.60;;;0.60;99.90;;;;;;5052920;28;20037;-66
2023/04/03 07:06:16;;;;;;;5.57;2.60;;;0.60;99.90;;;;;;5048331;28;20049;-66
2023/04/03 07:08:42;;;;;;;6.03;2.88;;;0.70;99.90;;;;;;5053052;28;20584;-66
2023/04/03 07:11:09;;;;;;;8.82;2.97;;;0.80;99.90;;;;;;5052324;28;20110;-66
2023/04/03 07:13:34;;;;;;;8.00;2.90;;;0.90;99.90;;;;;;5052385;28;20493;-66
2023/04/03 07:16:01;;;;;;;6.68;2.45;;;1.00;99.90;;;;;;5056360;28;20233;-66
2023/04/03 07:18:27;;;;;;;6.72;3.13;;;1.10;99.90;;;;;;5038446;28;20053;-66
2023/04/03 07:20:52;;;;;;;5.07;2.83;;;1.20;99.90;;;;;;5069151;28;20040;-66
2023/04/03 07:23:18;;;;;;;4.80;2.65;;;1.30;99.90;;;;;;5052714;28;20093;-66
2023/04/03 07:25:49;;;;;;;5.55;2.15;;;1.40;99.90;;;;;;5060934;28;20048;-66
2023/04/03 07:28:17;;;;;;;6.20;2.40;;;1.50;99.90;;;;;;5023674;28;20044;-66
2023/04/03 07:31:08;;;;;;;5.00;2.45;;;1.80;99.90;;;;;;5058288;28;20238;-66
2023/04/03 07:33:34;;;;;;;5.18;2.17;;;2.60;99.90;;;;;;5038490;28;20044;-67
2023/04/03 07:36:01;;;;;;;4.20;1.90;;;4.00;99.90;;;;;;5069124;28;20044;-66
2023/04/03 07:38:28;;;;;;;6.82;2.25;;;5.20;99.90;;;;;;5056955;28;20040;-67
2023/04/03 07:40:54;;;;;;;3.70;2.05;;;6.30;99.90;;;;;;5052279;28;20068;-67
2023/04/03 07:43:21;;;;;;;7.20;2.33;;;7.10;99.90;;;;;;5052534;28;20141;-66
2023/04/03 07:45:50;;;;;;;5.28;2.10;;;7.40;99.90;;;;;;5051787;28;20098;-67
2023/04/03 07:48:21;;;;;;;5.65;2.15;;;8.20;99.90;;;;;;5054084;28;20045;-67
2023/04/03 07:50:47;;;;;;;5.88;2.10;;;8.50;99.90;;;;;;5052494;28;20185;-67
2023/04/03 07:53:12;;;;;;;5.97;2.10;;;8.70;99.90;;;;;;5049579;28;20045;-67
2023/04/03 07:55:42;;;;;;;4.43;2.17;;;9.10;98.70;;;;;;5064578;28;20413;-67
2023/04/03 07:58:14;;;;;;;4.95;1.88;;;9.70;99.90;;;;;;5048993;28;20824;-67
2023/04/03 08:00:40;;;;;;;5.97;2.05;;;10.10;97.10;;;;;;5059781;28;20136;-67
2023/04/03 08:03:07;;;;;;;6.72;2.35;;;10.30;98.70;;;;;;5057801;28;20413;-67
2023/04/03 08:05:37;;;;;;;3.97;1.85;;;10.50;97.50;;;;;;5056040;28;20114;-67
2023/04/03 08:08:04;;;;;;;6.35;2.10;;;10.80;95.50;;;;;;5052683;28;20102;-67
2023/04/03 08:10:30;;;;;;;4.68;2.13;;;11.00;96.70;;;;;;5053662;28;20082;-67
2023/04/03 08:12:56;;;;;;;3.53;1.65;;;10.80;95.70;;;;;;5051263;28;20403;-67
2023/04/03 08:15:22;;;;;;;3.45;1.90;;;11.10;94.10;;;;;;5053636;28;20078;-67
2023/04/03 08:17:49;;;;;;;4.60;2.10;;;11.20;94.30;;;;;;5069088;28;20041;-66
2023/04/03 08:20:15;;;;;;;4.45;2.03;;;11.30;92.80;;;;;;5053441;28;20071;-67
2023/04/03 08:22:40;;;;;;;4.88;2.00;;;11.20;93.20;;;;;;5058134;28;20068;-67
2023/04/03 08:25:06;;;;;;;2.53;1.55;;;11.80;92.50;;;;;;5052844;28;20058;-66
2023/04/03 08:27:32;;;;;;;6.15;2.15;;;11.70;90.50;;;;;;5057415;28;21849;-67
2023/04/03 08:29:58;;;;;;;5.53;1.58;;;11.70;91.30;;;;;;5057608;28;20040;-66
2023/04/03 08:32:24;;;;;;;6.75;1.58;;;11.60;87.70;;;;;;5044460;28;20072;-68
2023/04/03 08:34:50;;;;;;;4.78;1.83;;;12.10;90.80;;;;;;5034303;28;20402;-67
2023/04/03 08:37:17;;;;;;;3.40;1.83;;;12.10;87.70;;;;;;5049607;28;20047;-68
2023/04/03 08:39:43;;;;;;;3.83;1.35;;;12.50;88.50;;;;;;5048766;28;20512;-66
2023/04/03 08:42:53;;;;;;;3.08;1.60;;;12.20;87.70;;;;;;5049540;28;20044;-66
2023/04/03 08:45:22;;;;;;;2.38;1.30;;;12.20;83.20;;;;;;5047099;28;20056;-67
2023/04/03 08:47:56;;;;;;;3.10;1.67;;;12.10;81.70;;;;;;5062365;28;20089;-67
2023/04/03 08:50:31;;;;;;;3.25;1.70;;;12.00;83.80;;;;;;5052951;28;20036;-67
2023/04/03 08:52:58;;;;;;;4.13;1.80;;;12.10;81.00;;;;;;5048712;28;20037;-67
2023/04/03 08:55:26;;;;;;;2.20;1.30;;;12.30;80.90;;;;;;5049252;28;20822;-67
2023/04/03 08:58:11;;;;;;;2.53;1.70;;;12.20;80.40;;;;;;5046518;28;20072;-67
2023/04/03 09:00:49;;;;;;;2.38;1.55;;;12.40;79.70;;;;;;5052048;28;20557;-67
2023/04/03 09:03:21;;;;;;;3.67;2.08;;;12.70;78.80;;;;;;5048747;28;20510;-67
2023/04/03 09:06:05;;;;;;;2.43;1.40;;;12.60;76.50;;;;;;5050009;28;20059;-67
2023/04/03 09:08:42;;;;;;;2.22;1.40;;;12.80;76.50;;;;;;5050276;28;20051;-67
2023/04/03 09:11:14;;;;;;;4.80;1.40;;;13.10;80.00;;;;;;5050083;28;20790;-67
2023/04/03 09:14:01;;;;;;;3.55;1.42;;;13.10;77.20;;;;;;5054881;28;20044;-67
2023/04/03 09:16:53;;;;;;;2.35;1.50;;;13.30;77.10;;;;;;5050741;28;20072;-67
2023/04/03 09:19:36;;;;;;;3.80;1.60;;;13.70;73.90;;;;;;5054451;28;20041;-67
2023/04/03 09:22:28;;;;;;;3.83;2.22;;;13.70;73.40;;;;;;5051213;28;20040;-67
2023/04/03 09:25:03;;;;;;;3.25;1.95;;;13.80;71.70;;;;;;5056486;28;20047;-67
2023/04/03 09:27:29;;;;;;;3.20;1.40;;;13.70;71.20;;;;;;5059733;28;20498;-67
2023/04/03 09:29:56;;;;;;;5.10;1.60;;;13.70;69.70;;;;;;5061330;28;20592;-67
2023/04/03 09:32:28;;;;;;;2.35;1.60;;;13.40;71.90;;;;;;5060910;28;20459;-67
2023/04/03 09:35:01;;;;;;;2.97;1.52;;;13.40;72.80;;;;;;5061012;28;20036;-67
2023/04/03 09:37:56;;;;;;;2.10;1.27;;;13.90;73.70;;;;;;5062167;28;20040;-67
2023/04/03 09:40:25;;;;;;;4.07;1.90;;;13.60;67.00;;;;;;5052173;28;20052;-66
2023/04/03 09:42:59;;;;;;;1.80;1.25;;;13.50;72.40;;;;;;5061574;28;20065;-66
2023/04/03 09:45:29;;;;;;;2.42;1.63;;;13.80;71.10;;;;;;5061095;28;20054;-66
2023/04/03 09:48:09;;;;;;;6.50;1.80;;;13.90;70.70;;;;;;5062963;28;20127;-67
2023/04/03 09:50:36;;;;;;;3.17;1.60;;;14.50;69.20;;;;;;5056232;28;20032;-67
2023/04/03 09:53:29;;;;;;;2.47;1.40;;;14.90;69.00;;;;;;5062569;28;20032;-67
2023/04/03 09:55:55;;;;;;;2.10;1.10;;;14.50;66.30;;;;;;5059567;28;20132;-66
2023/04/03 09:58:29;;;;;;;3.13;1.50;;;14.50;67.30;;;;;;5059773;28;20131;-66
2023/04/03 10:01:00;;;;;;;1.40;1.20;;;14.30;64.80;;;;;;5060614;28;20110;-66
2023/04/03 10:03:32;;;;;;;2.28;1.10;;;13.90;62.80;;;;;;5064671;28;20124;-67
2023/04/03 10:06:00;;;;;;;3.47;1.23;;;13.80;63.50;;;;;;5054602;28;20032;-67
2023/04/03 10:08:33;;;;;;;1.25;1.00;;;13.90;64.10;;;;;;5059872;28;20083;-67
2023/04/03 10:11:15;;;;;;;2.55;1.30;;;13.60;63.10;;;;;;5058092;28;20097;-67
2023/04/03 10:14:00;;;;;;;3.13;1.20;;;12.80;63.40;;;;;;5065887;28;20101;-67
2023/04/03 10:16:37;;;;;;;4.25;1.55;;;12.80;65.60;;;;;;5054511;28;20532;-66
2023/04/03 10:19:32;;;;;;;2.00;1.10;;;12.60;63.90;;;;;;5059787;28;20044;-66
2023/04/03 10:22:19;;;;;;;2.78;1.38;;;12.70;66.90;;;;;;5041323;28;20093;-66
2023/04/03 10:25:23;;;;;;;3.20;1.30;;;13.00;64.90;;;;;;5053561;28;20052;-66
2023/04/03 10:28:26;;;;;;;3.53;1.48;;;13.10;65.40;;;;;;5037471;28;20565;-66
2023/04/03 10:31:06;;;;;;;;;;;13.70;66.70;;;;;;5059868;28;20044;-66
2023/04/03 10:34:06;;;;;;;4.72;1.98;;;14.20;64.00;;;;;;5057718;28;19927;-66
2023/04/03 10:36:49;;;;;;;3.50;1.52;;;14.60;63.80;;;;;;5011483;28;20574;-66
2023/04/03 10:40:00;;;;;;;2.95;1.30;;;14.50;62.50;;;;;;5069845;28;20147;-66
2023/04/03 10:42:33;;;;;;;3.47;1.27;;;15.10;62.70;;;;;;5066402;28;20065;-66
2023/04/03 10:45:02;;;;;;;3.20;1.40;;;15.40;61.40;;;;;;5049599;28;20417;-66
2023/04/03 10:47:54;;;;;;;5.00;1.25;;;15.80;61.90;;;;;;5065632;28;20048;-66
2023/04/03 10:51:00;;;;;;;1.52;1.40;;;15.60;61.50;;;;;;5060863;28;20125;-66
2023/04/03 10:53:53;;;;;;;3.88;1.40;;;15.70;59.90;;;;;;5068664;28;20049;-66
2023/04/03 10:56:42;;;;;;;2.58;1.15;;;15.70;60.30;;;;;;5069499;28;20036;-67
2023/04/03 10:59:18;;;;;;;3.92;1.55;;;15.80;60.50;;;;;;5069209;28;20512;-67
2023/04/03 11:01:47;;;;;;;4.82;1.40;;;15.50;59.50;;;;;;5064018;28;20120;-67
2023/04/03 11:04:19;;;;;;;2.10;1.10;;;15.10;58.10;;;;;;5061198;28;20051;-67
2023/04/03 11:06:57;;;;;;;4.10;1.50;;;14.70;60.70;;;;;;5066587;28;20500;-67
2023/04/03 11:09:27;;;;;;;1.45;1.10;;;14.50;60.30;;;;;;5066853;28;20059;-66
2023/04/03 11:12:01;;;;;;;4.40;1.42;;;15.00;58.50;;;;;;5066846;28;20044;-67
2023/04/03 11:14:31;;;;;;;2.28;1.20;;;14.80;60.40;;;;;;5062652;28;20448;-67
2023/04/03 11:17:16;;;;;;;2.53;1.38;;;15.00;60.60;;;;;;5066043;28;20029;-66
2023/04/03 11:19:51;;;;;;;1.85;1.45;;;14.60;59.90;;;;;;5049712;28;20040;-67
2023/04/03 11:22:34;;;;;;;1.95;1.33;;;14.50;61.00;;;;;;5068512;28;20043;-66
2023/04/03 11:25:10;;;;;;;3.10;1.50;;;14.00;60.20;;;;;;5065686;28;20036;-66
2023/04/03 11:27:57;;;;;;;1.25;1.00;;;13.80;60.60;;;;;;5059131;28;20048;-67
2023/04/03 11:30:33;;;;;;;3.53;1.70;;;13.40;60.80;;;;;;5052799;28;20052;-66
2023/04/03 11:33:15;;;;;;;3.05;1.50;;;13.10;61.00;;;;;;5054040;28;20474;-67
2023/04/03 11:35:47;;;;;;;3.78;1.77;;;13.00;61.90;;;;;;5052150;28;20182;-66
2023/04/03 11:38:36;;;;;;;3.90;1.58;;;12.30;60.40;;;;;;5047962;28;20041;-64
2023/04/03 11:41:04;;;;;;;2.50;1.30;;;12.00;61.80;;;;;;5031876;28;20056;-66
2023/04/03 11:43:32;;;;;;;3.22;1.73;;;11.70;64.20;;;;;;5051542;28;20056;-66
2023/04/03 11:46:04;;;;;;;1.70;1.42;;;11.60;64.80;;;;;;5049826;28;20373;-66
2023/04/03 11:48:33;;;;;;;3.42;1.42;;;11.40;64.10;;;;;;5051847;28;20362;-66
2023/04/03 11:51:00;;;;;;;4.18;1.65;;;11.40;64.20;;;;;;5052095;28;20040;-66
2023/04/03 11:53:47;;;;;;;2.40;1.52;;;11.30;64.30;;;;;;5031348;28;20077;-66
2023/04/03 11:56:31;;;;;;;2.83;1.33;;;11.20;65.30;;;;;;5050185;28;20064;-66
2023/04/03 11:59:12;;;;;;;4.60;1.67;;;11.40;65.40;;;;;;5048630;28;20492;-66
2023/04/03 12:02:00;;;;;;;2.28;1.63;;;11.60;63.80;;;;;;5051913;28;20071;-66
2023/04/03 12:04:27;;;;;;;2.63;1.60;;;11.40;65.30;;;;;;5064060;28;20056;-66
2023/04/03 12:07:14;;;;;;;2.25;1.25;;;11.40;64.40;;;;;;5056319;28;20628;-66
2023/04/03 12:09:40;;;;;;;3.00;1.60;;;11.40;65.80;;;;;;5051098;28;20064;-65
2023/04/03 12:12:41;;;;;;;2.17;1.30;;;11.80;66.70;;;;;;5052276;28;20033;-66
2023/04/03 12:15:41;;;;;;;3.75;1.55;;;11.90;64.90;;;;;;5014043;28;20132;-65
2023/04/03 12:18:46;;;;;;;2.65;1.10;;;11.70;63.70;;;;;;5048094;28;20044;-66
2023/04/03 12:21:13;;;;;;;2.60;1.45;;;11.90;66.60;;;;;;5030463;28;20037;-66
2023/04/03 12:24:03;;;;;;;2.35;1.52;;;11.80;65.40;;;;;;5049945;28;20037;-66
2023/04/03 12:26:40;;;;;;;2.40;1.27;;;12.00;65.20;;;;;;5051370;28;20506;-65
2023/04/03 12:29:25;;;;;;;2.72;1.50;;;12.00;65.00;;;;;;5042970;28;20413;-67
2023/04/03 12:32:10;;;;;;;3.53;1.65;;;11.90;64.70;;;;;;5054890;28;20971;-65
2023/04/03 12:34:55;;;;;;;4.55;1.63;;;11.80;63.20;;;;;;5051819;28;20048;-66
2023/04/03 12:37:49;;;;;;;3.20;1.60;;;12.10;65.20;;;;;;5036559;28;20047;-66
2023/04/03 12:40:53;;;;;;;7.55;1.50;;;12.20;66.10;;;;;;5050724;28;20043;-67
2023/04/03 12:43:56;;;;;;;2.88;1.50;;;12.30;65.40;;;;;;4975925;28;20053;-67
2023/04/03 12:46:23;;;;;;;3.17;1.40;;;12.40;64.40;;;;;;5048674;28;20056;-67
2023/04/03 12:48:51;;;;;;;2.45;1.42;;;12.50;64.50;;;;;;5056312;28;20194;-68
2023/04/03 12:51:33;;;;;;;2.88;1.50;;;12.40;64.80;;;;;;5051114;28;20040;-66
2023/04/03 12:54:12;;;;;;;3.38;1.80;;;12.40;67.70;;;;;;5051499;28;20044;-66
2023/04/03 12:56:39;;;;;;;4.05;1.42;;;12.30;65.20;;;;;;5034798;28;20043;-66
2023/04/03 12:59:26;;;;;;;4.95;1.65;;;12.20;64.20;;;;;;5040800;28;20921;-66
2023/04/03 13:01:57;;;;;;;4.05;1.85;;;12.20;64.60;;;;;;5057495;28;20646;-66
2023/04/03 13:04:23;;;;;;;2.67;1.63;;;12.20;65.70;;;;;;5062420;28;20123;-65
2023/04/03 13:06:50;;;;;;;3.33;1.50;;;12.20;65.30;;;;;;5076275;28;20044;-66
2023/04/03 13:09:23;;;;;;;2.40;1.23;;;12.50;66.80;;;;;;5043157;28;20044;-65
2023/04/03 13:11:51;;;;;;;4.07;1.67;;;12.50;65.00;;;;;;5060978;28;20116;-65